createdAt,value
2023-01-08T00:00:01.436Z,995.30
2023-01-08T00:00:11.446Z,995.37
2023-01-08T00:00:22.110Z,995.28
2023-01-08T00:00:31.464Z,995.35
2023-01-08T00:00:41.506Z,995.29
2023-01-08T00:00:51.652Z,995.33
2023-01-08T00:01:01.563Z,995.11
2023-01-08T00:01:11.486Z,995.30
2023-01-08T00:01:21.432Z,995.33
2023-01-08T00:01:31.437Z,995.34
2023-01-08T00:01:41.432Z,995.25
2023-01-08T00:01:51.449Z,995.29
2023-01-08T00:02:01.420Z,995.32
2023-01-08T00:02:11.445Z,995.30
2023-01-08T00:02:21.426Z,995.29
2023-01-08T00:02:31.470Z,995.26
2023-01-08T00:02:41.500Z,995.35
2023-01-08T00:02:51.533Z,995.30
2023-01-08T00:03:01.623Z,995.28
2023-01-08T00:03:11.575Z,995.29
2023-01-08T00:03:21.547Z,995.36
2023-01-08T00:03:31.613Z,995.36
2023-01-08T00:03:41.614Z,995.34
2023-01-08T00:03:51.693Z,995.17
2023-01-08T00:04:01.567Z,995.27
2023-01-08T00:04:11.500Z,995.35
2023-01-08T00:04:21.483Z,995.17
2023-01-08T00:04:31.418Z,995.28
2023-01-08T00:04:41.408Z,995.34
2023-01-08T00:04:51.478Z,995.37
2023-01-08T00:05:01.417Z,995.34
2023-01-08T00:05:11.461Z,995.35
2023-01-08T00:05:21.433Z,995.25
2023-01-08T00:05:31.408Z,995.23
2023-01-08T00:05:41.460Z,995.23
2023-01-08T00:05:51.408Z,995.25
2023-01-08T00:06:01.417Z,995.22
2023-01-08T00:06:12.008Z,995.12
2023-01-08T00:06:21.509Z,995.22
2023-01-08T00:06:31.414Z,995.29
2023-01-08T00:06:41.406Z,995.23
2023-01-08T00:06:51.418Z,995.09
2023-01-08T00:07:01.409Z,995.21
2023-01-08T00:07:11.413Z,995.24
2023-01-08T00:07:21.406Z,995.13
2023-01-08T00:07:32.079Z,995.13
2023-01-08T00:07:41.414Z,995.15
2023-01-08T00:07:51.408Z,995.18
2023-01-08T00:08:01.417Z,995.15
2023-01-08T00:08:11.414Z,994.99
2023-01-08T00:08:21.390Z,995.12
2023-01-08T00:08:31.418Z,995.12
2023-01-08T00:08:41.399Z,995.15
2023-01-08T00:08:51.533Z,995.17
2023-01-08T00:09:01.447Z,995.23
2023-01-08T00:09:12.030Z,995.19
2023-01-08T00:09:21.391Z,995.17
2023-01-08T00:09:31.395Z,995.18
2023-01-08T00:09:41.485Z,995.21
2023-01-08T00:09:51.395Z,995.22
2023-01-08T00:10:01.398Z,995.22
2023-01-08T00:10:11.383Z,995.18
2023-01-08T00:10:22.002Z,995.22
2023-01-08T00:10:31.401Z,995.26
2023-01-08T00:10:41.446Z,995.27
2023-01-08T00:10:51.385Z,995.19
2023-01-08T00:11:01.419Z,995.20
2023-01-08T00:11:11.521Z,995.22
2023-01-08T00:11:21.436Z,995.15
2023-01-08T00:11:31.436Z,995.17
2023-01-08T00:11:41.429Z,995.12
2023-01-08T00:11:51.392Z,995.08
2023-01-08T00:12:01.395Z,995.05
2023-01-08T00:12:11.497Z,995.15
2023-01-08T00:12:21.383Z,995.20
2023-01-08T00:12:31.393Z,995.11
2023-01-08T00:12:41.391Z,995.13
2023-01-08T00:12:51.380Z,995.17
2023-01-08T00:13:02.002Z,995.10
2023-01-08T00:13:12.003Z,995.10
2023-01-08T00:13:21.385Z,995.10
2023-01-08T00:13:31.372Z,995.09
2023-01-08T00:13:41.373Z,995.18
2023-01-08T00:13:51.393Z,995.14
2023-01-08T00:14:01.390Z,995.05
2023-01-08T00:14:11.376Z,995.10
2023-01-08T00:14:21.389Z,995.10
2023-01-08T00:14:31.397Z,995.15
2023-01-08T00:14:41.432Z,995.20
2023-01-08T00:14:51.365Z,995.14
2023-01-08T00:15:01.368Z,995.11
2023-01-08T00:15:11.998Z,995.17
2023-01-08T00:15:21.366Z,995.14
2023-01-08T00:15:31.370Z,995.23
2023-01-08T00:15:41.366Z,995.17
2023-01-08T00:15:51.376Z,995.23
2023-01-08T00:16:01.404Z,995.20
2023-01-08T00:16:11.460Z,995.07
2023-01-08T00:16:21.429Z,995.18
2023-01-08T00:16:31.422Z,995.18
2023-01-08T00:16:41.525Z,995.16
2023-01-08T00:16:51.554Z,995.20
2023-01-08T00:17:01.460Z,995.24
2023-01-08T00:17:11.365Z,995.25
2023-01-08T00:17:21.465Z,995.22
2023-01-08T00:17:31.389Z,995.25
2023-01-08T00:17:41.355Z,995.28
2023-01-08T00:17:51.381Z,995.24
2023-01-08T00:18:01.355Z,995.27
2023-01-08T00:18:11.378Z,995.31
2023-01-08T00:18:21.353Z,995.28
2023-01-08T00:18:31.360Z,995.28
2023-01-08T00:18:41.360Z,995.33
2023-01-08T00:18:51.451Z,995.31
2023-01-08T00:19:01.351Z,995.31
2023-01-08T00:19:11.416Z,995.30
2023-01-08T00:19:21.408Z,995.32
2023-01-08T00:19:31.359Z,995.23
2023-01-08T00:19:41.352Z,995.27
2023-01-08T00:19:51.349Z,995.29
2023-01-08T00:20:01.355Z,995.34
2023-01-08T00:20:12.021Z,995.35
2023-01-08T00:20:21.375Z,995.28
2023-01-08T00:20:31.366Z,995.28
2023-01-08T00:20:41.361Z,995.25
2023-01-08T00:20:51.360Z,995.27
2023-01-08T00:21:01.491Z,995.26
2023-01-08T00:21:11.349Z,995.28
2023-01-08T00:21:21.338Z,995.26
2023-01-08T00:21:31.372Z,995.30
2023-01-08T00:21:41.356Z,995.22
2023-01-08T00:21:51.396Z,995.29
2023-01-08T00:22:01.351Z,995.22
2023-01-08T00:22:11.351Z,995.27
2023-01-08T00:22:21.352Z,995.30
2023-01-08T00:22:31.340Z,995.26
2023-01-08T00:22:41.350Z,995.23
2023-01-08T00:22:51.503Z,995.26
2023-01-08T00:23:01.432Z,995.27
2023-01-08T00:23:11.405Z,995.27
2023-01-08T00:23:21.361Z,995.23
2023-01-08T00:23:31.337Z,995.23
2023-01-08T00:23:41.381Z,995.15
2023-01-08T00:23:51.423Z,995.24
2023-01-08T00:24:01.434Z,995.20
2023-01-08T00:24:11.329Z,995.19
2023-01-08T00:24:22.013Z,995.23
2023-01-08T00:24:31.338Z,995.19
2023-01-08T00:24:41.322Z,995.27
2023-01-08T00:24:51.363Z,995.24
2023-01-08T00:25:02.011Z,995.23
2023-01-08T00:25:11.344Z,995.23
2023-01-08T00:25:21.396Z,995.19
2023-01-08T00:25:31.358Z,995.13
2023-01-08T00:25:41.328Z,995.12
2023-01-08T00:25:51.328Z,995.06
2023-01-08T00:26:01.328Z,995.18
2023-01-08T00:26:11.338Z,995.18
2023-01-08T00:26:21.340Z,995.13
2023-01-08T00:26:31.367Z,995.16
2023-01-08T00:26:41.337Z,995.13
2023-01-08T00:26:51.335Z,995.17
2023-01-08T00:27:02.017Z,995.12
2023-01-08T00:27:11.392Z,995.19
2023-01-08T00:27:21.320Z,995.12
2023-01-08T00:27:31.321Z,995.18
2023-01-08T00:27:41.320Z,995.19
2023-01-08T00:27:51.322Z,995.18
2023-01-08T00:28:01.312Z,995.21
2023-01-08T00:28:11.313Z,995.19
2023-01-08T00:28:21.346Z,995.19
2023-01-08T00:28:32.001Z,995.20
2023-01-08T00:28:41.323Z,995.18
2023-01-08T00:28:51.330Z,995.17
2023-01-08T00:29:01.319Z,995.16
2023-01-08T00:29:11.320Z,995.19
2023-01-08T00:29:21.310Z,995.18
2023-01-08T00:29:31.323Z,995.17
2023-01-08T00:29:41.312Z,995.19
2023-01-08T00:29:51.330Z,995.25
2023-01-08T00:30:01.324Z,995.20
2023-01-08T00:30:11.424Z,995.17
2023-01-08T00:30:21.321Z,995.18
2023-01-08T00:30:31.336Z,995.18
2023-01-08T00:30:41.377Z,995.27
2023-01-08T00:30:51.394Z,995.19
2023-01-08T00:31:03.428Z,995.22
2023-01-08T00:31:11.370Z,995.18
2023-01-08T00:31:21.417Z,995.22
2023-01-08T00:31:31.300Z,995.18
2023-01-08T00:31:41.323Z,995.27
2023-01-08T00:31:51.304Z,995.23
2023-01-08T00:32:01.303Z,995.25
2023-01-08T00:32:11.340Z,995.22
2023-01-08T00:32:21.312Z,995.21
2023-01-08T00:32:31.309Z,995.21
2023-01-08T00:32:41.327Z,995.22
2023-01-08T00:32:51.299Z,995.23
2023-01-08T00:33:01.301Z,995.24
2023-01-08T00:33:11.307Z,995.21
2023-01-08T00:33:21.321Z,995.20
2023-01-08T00:33:31.321Z,995.29
2023-01-08T00:33:41.298Z,995.23
2023-01-08T00:33:51.297Z,995.22
2023-01-08T00:34:01.312Z,995.20
2023-01-08T00:34:11.349Z,995.26
2023-01-08T00:34:21.283Z,995.27
2023-01-08T00:34:31.283Z,995.31
2023-01-08T00:34:41.287Z,995.31
2023-01-08T00:34:51.281Z,995.27
2023-01-08T00:35:01.278Z,995.27
2023-01-08T00:35:11.302Z,995.28
2023-01-08T00:35:21.296Z,995.33
2023-01-08T00:35:32.025Z,995.23
2023-01-08T00:35:41.311Z,995.30
2023-01-08T00:35:51.289Z,995.30
2023-01-08T00:36:01.272Z,995.29
2023-01-08T00:36:11.292Z,995.31
2023-01-08T00:36:21.282Z,995.30
2023-01-08T00:36:31.277Z,995.31
2023-01-08T00:36:41.275Z,995.29
2023-01-08T00:36:51.273Z,995.29
2023-01-08T00:37:02.011Z,995.26
2023-01-08T00:37:11.270Z,995.23
2023-01-08T00:37:21.330Z,995.26
2023-01-08T00:37:32.007Z,995.22
2023-01-08T00:37:41.272Z,995.21
2023-01-08T00:37:51.270Z,995.19
2023-01-08T00:38:01.270Z,995.24
2023-01-08T00:38:11.282Z,995.28
2023-01-08T00:38:22.027Z,995.24
2023-01-08T00:38:31.299Z,995.23
2023-01-08T00:38:41.271Z,995.11
2023-01-08T00:38:51.264Z,995.16
2023-01-08T00:39:01.297Z,995.19
2023-01-08T00:39:11.480Z,995.20
2023-01-08T00:39:21.274Z,995.20
2023-01-08T00:39:31.277Z,995.19
2023-01-08T00:39:41.279Z,995.18
2023-01-08T00:39:51.388Z,995.19
2023-01-08T00:40:01.260Z,995.15
2023-01-08T00:40:11.273Z,995.17
2023-01-08T00:40:21.264Z,995.24
2023-01-08T00:40:31.262Z,995.22
2023-01-08T00:40:41.287Z,995.16
2023-01-08T00:40:51.263Z,995.16
2023-01-08T00:41:01.275Z,995.07
2023-01-08T00:41:11.335Z,995.11
2023-01-08T00:41:21.265Z,995.03
2023-01-08T00:41:31.359Z,995.09
2023-01-08T00:41:41.252Z,995.12
2023-01-08T00:41:51.273Z,995.12
2023-01-08T00:42:01.264Z,995.10
2023-01-08T00:42:11.248Z,995.05
2023-01-08T00:42:21.373Z,995.11
2023-01-08T00:42:31.318Z,995.12
2023-01-08T00:42:41.272Z,995.16
2023-01-08T00:42:51.269Z,995.12
2023-01-08T00:43:01.265Z,995.11
2023-01-08T00:43:11.251Z,995.12
2023-01-08T00:43:21.245Z,995.16
2023-01-08T00:43:31.259Z,995.18
2023-01-08T00:43:41.258Z,995.18
2023-01-08T00:43:51.251Z,995.11
2023-01-08T00:44:01.241Z,995.14
2023-01-08T00:44:11.268Z,995.18
2023-01-08T00:44:21.255Z,995.19
2023-01-08T00:44:31.242Z,995.16
2023-01-08T00:44:41.257Z,995.18
2023-01-08T00:44:51.246Z,995.12
2023-01-08T00:45:01.249Z,995.17
2023-01-08T00:45:11.263Z,995.15
2023-01-08T00:45:22.022Z,995.14
2023-01-08T00:45:31.336Z,995.14
2023-01-08T00:45:41.269Z,995.03
2023-01-08T00:45:51.332Z,994.99
2023-01-08T00:46:01.345Z,995.12
2023-01-08T00:46:11.372Z,995.06
2023-01-08T00:46:21.271Z,995.12
2023-01-08T00:46:31.237Z,995.16
2023-01-08T00:46:41.233Z,995.08
2023-01-08T00:46:51.244Z,995.07
2023-01-08T00:47:01.245Z,995.08
2023-01-08T00:47:11.254Z,995.09
2023-01-08T00:47:21.224Z,995.10
2023-01-08T00:47:31.261Z,995.10
2023-01-08T00:47:41.277Z,995.08
2023-01-08T00:47:51.267Z,995.15
2023-01-08T00:48:01.243Z,995.09
2023-01-08T00:48:11.395Z,995.16
2023-01-08T00:48:21.224Z,995.14
2023-01-08T00:48:31.255Z,995.13
2023-01-08T00:48:41.220Z,995.14
2023-01-08T00:48:51.224Z,995.14
2023-01-08T00:49:01.224Z,995.12
2023-01-08T00:49:11.273Z,995.13
2023-01-08T00:49:21.229Z,995.14
2023-01-08T00:49:32.019Z,995.10
2023-01-08T00:49:41.235Z,994.99
2023-01-08T00:49:51.222Z,995.04
2023-01-08T00:50:01.218Z,995.04
2023-01-08T00:50:11.219Z,995.04
2023-01-08T00:50:21.221Z,995.02
2023-01-08T00:50:31.217Z,994.98
2023-01-08T00:50:41.232Z,995.04
2023-01-08T00:50:51.249Z,995.05
2023-01-08T00:51:01.329Z,995.02
2023-01-08T00:51:12.016Z,995.08
2023-01-08T00:51:21.233Z,995.00
2023-01-08T00:51:31.212Z,994.97
2023-01-08T00:51:41.214Z,995.00
2023-01-08T00:51:51.245Z,994.99
2023-01-08T00:52:01.218Z,994.99
2023-01-08T00:52:11.217Z,994.91
2023-01-08T00:52:22.017Z,994.97
2023-01-08T00:52:31.268Z,994.90
2023-01-08T00:52:41.214Z,994.95
2023-01-08T00:52:51.253Z,995.02
2023-01-08T00:53:01.220Z,995.00
2023-01-08T00:53:11.206Z,995.02
2023-01-08T00:53:21.222Z,995.07
2023-01-08T00:53:31.311Z,995.02
2023-01-08T00:53:41.205Z,995.02
2023-01-08T00:53:51.217Z,995.00
2023-01-08T00:54:01.278Z,995.06
2023-01-08T00:54:11.217Z,995.02
2023-01-08T00:54:21.322Z,995.08
2023-01-08T00:54:31.213Z,995.09
2023-01-08T00:54:41.212Z,995.05
2023-01-08T00:54:51.193Z,995.06
2023-01-08T00:55:01.268Z,995.06
2023-01-08T00:55:12.011Z,995.06
2023-01-08T00:55:21.192Z,995.05
2023-01-08T00:55:32.033Z,995.04
2023-01-08T00:55:41.191Z,995.06
2023-01-08T00:55:51.206Z,995.04
2023-01-08T00:56:01.205Z,995.04
2023-01-08T00:56:11.209Z,995.02
2023-01-08T00:56:21.189Z,995.00
2023-01-08T00:56:31.225Z,994.99
2023-01-08T00:56:41.221Z,995.01
2023-01-08T00:56:51.197Z,995.02
2023-01-08T00:57:01.190Z,995.00
2023-01-08T00:57:11.200Z,994.99
2023-01-08T00:57:21.191Z,995.00
2023-01-08T00:57:31.197Z,994.97
2023-01-08T00:57:41.191Z,994.94
2023-01-08T00:57:52.012Z,995.00
2023-01-08T00:58:01.322Z,994.98
2023-01-08T00:58:11.209Z,994.98
2023-01-08T00:58:21.184Z,995.02
2023-01-08T00:58:31.238Z,995.05
2023-01-08T00:58:41.234Z,995.01
2023-01-08T00:58:51.233Z,995.00
2023-01-08T00:59:01.182Z,994.95
2023-01-08T00:59:11.203Z,994.99
2023-01-08T00:59:22.023Z,995.00
2023-01-08T00:59:31.210Z,994.98
2023-01-08T00:59:41.176Z,994.99
2023-01-08T00:59:51.193Z,994.98
2023-01-08T01:00:01.206Z,994.98
2023-01-08T01:00:11.283Z,994.94
2023-01-08T01:00:21.186Z,994.97
2023-01-08T01:00:31.175Z,994.99
2023-01-08T01:00:41.190Z,994.92
2023-01-08T01:00:51.248Z,994.96
2023-01-08T01:01:01.317Z,994.94
2023-01-08T01:01:11.303Z,994.89
2023-01-08T01:01:21.387Z,994.91
2023-01-08T01:01:31.325Z,994.89
2023-01-08T01:01:41.285Z,994.83
2023-01-08T01:01:52.194Z,994.85
2023-01-08T01:02:01.317Z,994.88
2023-01-08T01:02:11.468Z,994.91
2023-01-08T01:02:21.209Z,994.92
2023-01-08T01:02:31.159Z,994.86
2023-01-08T01:02:41.165Z,994.88
2023-01-08T01:02:51.203Z,994.88
2023-01-08T01:03:01.159Z,994.83
2023-01-08T01:03:11.200Z,994.82
2023-01-08T01:03:21.273Z,994.81
2023-01-08T01:03:32.184Z,994.83
2023-01-08T01:03:41.164Z,994.83
2023-01-08T01:03:51.253Z,994.90
2023-01-08T01:04:01.202Z,994.90
2023-01-08T01:04:11.239Z,994.86
2023-01-08T01:04:21.277Z,994.86
2023-01-08T01:04:31.227Z,994.83
2023-01-08T01:04:41.162Z,994.85
2023-01-08T01:04:51.187Z,994.84
2023-01-08T01:05:01.284Z,994.81
2023-01-08T01:05:11.178Z,994.83
2023-01-08T01:05:21.158Z,994.83
2023-01-08T01:05:31.171Z,994.78
2023-01-08T01:05:41.167Z,994.77
2023-01-08T01:05:51.250Z,994.81
2023-01-08T01:06:01.148Z,994.80
2023-01-08T01:06:11.191Z,994.79
2023-01-08T01:06:21.260Z,994.78
2023-01-08T01:06:31.166Z,994.71
2023-01-08T01:06:41.179Z,994.74
2023-01-08T01:06:51.150Z,994.76
2023-01-08T01:07:01.182Z,994.79
2023-01-08T01:07:11.152Z,994.75
2023-01-08T01:07:21.144Z,994.70
2023-01-08T01:07:31.153Z,994.77
2023-01-08T01:07:42.049Z,994.80
2023-01-08T01:07:51.151Z,994.76
2023-01-08T01:08:01.154Z,994.69
2023-01-08T01:08:11.136Z,994.71
2023-01-08T01:08:21.194Z,994.71
2023-01-08T01:08:31.139Z,994.74
2023-01-08T01:08:41.165Z,994.75
2023-01-08T01:08:51.137Z,994.69
2023-01-08T01:09:01.167Z,994.73
2023-01-08T01:09:11.133Z,994.72
2023-01-08T01:09:21.151Z,994.62
2023-01-08T01:09:31.328Z,994.67
2023-01-08T01:09:41.141Z,994.71
2023-01-08T01:09:51.143Z,994.68
2023-01-08T01:10:01.139Z,994.73
2023-01-08T01:10:11.140Z,994.70
2023-01-08T01:10:21.138Z,994.69
2023-01-08T01:10:32.052Z,994.71
2023-01-08T01:10:41.148Z,994.73
2023-01-08T01:10:51.159Z,994.66
2023-01-08T01:11:01.149Z,994.70
2023-01-08T01:11:11.151Z,994.70
2023-01-08T01:11:21.141Z,994.74
2023-01-08T01:11:31.125Z,994.74
2023-01-08T01:11:41.138Z,994.71
2023-01-08T01:11:51.142Z,994.71
2023-01-08T01:12:01.152Z,994.76
2023-01-08T01:12:11.130Z,994.75
2023-01-08T01:12:21.145Z,994.72
2023-01-08T01:12:31.122Z,994.74
2023-01-08T01:12:41.128Z,994.72
2023-01-08T01:12:51.232Z,994.71
2023-01-08T01:13:01.138Z,994.65
2023-01-08T01:13:12.072Z,994.68
2023-01-08T01:13:21.236Z,994.71
2023-01-08T01:13:31.193Z,994.72
2023-01-08T01:13:41.124Z,994.72
2023-01-08T01:13:51.122Z,994.72
2023-01-08T01:14:01.123Z,994.68
2023-01-08T01:14:11.120Z,994.68
2023-01-08T01:14:21.121Z,994.68
2023-01-08T01:14:31.114Z,994.69
2023-01-08T01:14:42.021Z,994.67
2023-01-08T01:14:51.142Z,994.65
2023-01-08T01:15:01.108Z,994.61
2023-01-08T01:15:11.128Z,994.67
2023-01-08T01:15:21.114Z,994.62
2023-01-08T01:15:31.180Z,994.61
2023-01-08T01:15:41.104Z,994.60
2023-01-08T01:15:51.118Z,994.67
2023-01-08T01:16:01.120Z,994.67
2023-01-08T01:16:11.174Z,994.66
2023-01-08T01:16:21.194Z,994.62
2023-01-08T01:16:31.132Z,994.61
2023-01-08T01:16:41.149Z,994.60
2023-01-08T01:16:51.316Z,994.59
2023-01-08T01:17:01.174Z,994.56
2023-01-08T01:17:11.099Z,994.58
2023-01-08T01:17:21.106Z,994.57
2023-01-08T01:17:32.023Z,994.59
2023-01-08T01:17:41.110Z,994.57
2023-01-08T01:17:51.104Z,994.58
2023-01-08T01:18:01.103Z,994.59
2023-01-08T01:18:11.093Z,994.61
2023-01-08T01:18:21.092Z,994.57
2023-01-08T01:18:31.103Z,994.57
2023-01-08T01:18:41.179Z,994.47
2023-01-08T01:18:51.115Z,994.49
2023-01-08T01:19:01.093Z,994.50
2023-01-08T01:19:11.095Z,994.54
2023-01-08T01:19:21.099Z,994.58
2023-01-08T01:19:32.023Z,994.56
2023-01-08T01:19:41.118Z,994.58
2023-01-08T01:19:51.108Z,994.59
2023-01-08T01:20:02.072Z,994.60
2023-01-08T01:20:11.100Z,994.60
2023-01-08T01:20:21.178Z,994.51
2023-01-08T01:20:31.101Z,994.59
2023-01-08T01:20:41.164Z,994.55
2023-01-08T01:20:51.111Z,994.55
2023-01-08T01:21:01.094Z,994.53
2023-01-08T01:21:11.087Z,994.49
2023-01-08T01:21:21.105Z,994.49
2023-01-08T01:21:31.114Z,994.56
2023-01-08T01:21:42.021Z,994.50
2023-01-08T01:21:51.124Z,994.52
2023-01-08T01:22:01.079Z,994.49
2023-01-08T01:22:11.085Z,994.48
2023-01-08T01:22:21.128Z,994.40
2023-01-08T01:22:31.080Z,994.45
2023-01-08T01:22:41.076Z,994.43
2023-01-08T01:22:51.090Z,994.45
2023-01-08T01:23:01.091Z,994.41
2023-01-08T01:23:11.085Z,994.45
2023-01-08T01:23:21.077Z,994.45
2023-01-08T01:23:32.012Z,994.41
2023-01-08T01:23:41.075Z,994.40
2023-01-08T01:23:51.171Z,994.41
2023-01-08T01:24:01.080Z,994.44
2023-01-08T01:24:11.086Z,994.41
2023-01-08T01:24:21.076Z,994.44
2023-01-08T01:24:31.223Z,994.43
2023-01-08T01:24:41.213Z,994.47
2023-01-08T01:24:51.081Z,994.42
2023-01-08T01:25:01.084Z,994.46
2023-01-08T01:25:11.062Z,994.51
2023-01-08T01:25:21.071Z,994.48
2023-01-08T01:25:31.071Z,994.47
2023-01-08T01:25:41.069Z,994.45
2023-01-08T01:25:51.083Z,994.45
2023-01-08T01:26:01.088Z,994.47
2023-01-08T01:26:11.064Z,994.44
2023-01-08T01:26:21.066Z,994.51
2023-01-08T01:26:31.071Z,994.44
2023-01-08T01:26:41.064Z,994.44
2023-01-08T01:26:51.069Z,994.44
2023-01-08T01:27:01.073Z,994.50
2023-01-08T01:27:11.066Z,994.46
2023-01-08T01:27:21.981Z,994.46
2023-01-08T01:27:31.073Z,994.46
2023-01-08T01:27:41.060Z,994.43
2023-01-08T01:27:51.160Z,994.45
2023-01-08T01:28:01.051Z,994.47
2023-01-08T01:28:11.053Z,994.48
2023-01-08T01:28:21.055Z,994.47
2023-01-08T01:28:31.059Z,994.45
2023-01-08T01:28:42.013Z,994.51
2023-01-08T01:28:51.062Z,994.45
2023-01-08T01:29:01.116Z,994.49
2023-01-08T01:29:11.047Z,994.48
2023-01-08T01:29:21.059Z,994.55
2023-01-08T01:29:31.049Z,994.51
2023-01-08T01:29:41.050Z,994.46
2023-01-08T01:29:51.044Z,994.55
2023-01-08T01:30:01.124Z,994.55
2023-01-08T01:30:11.063Z,994.54
2023-01-08T01:30:21.058Z,994.51
2023-01-08T01:30:31.066Z,994.49
2023-01-08T01:30:41.085Z,994.54
2023-01-08T01:30:51.074Z,994.53
2023-01-08T01:31:01.221Z,994.58
2023-01-08T01:31:11.163Z,994.59
2023-01-08T01:31:21.175Z,994.56
2023-01-08T01:31:31.167Z,994.59
2023-01-08T01:31:41.042Z,994.59
2023-01-08T01:31:51.047Z,994.61
2023-01-08T01:32:01.052Z,994.61
2023-01-08T01:32:11.049Z,994.56
2023-01-08T01:32:21.031Z,994.55
2023-01-08T01:32:32.038Z,994.58
2023-01-08T01:32:41.039Z,994.56
2023-01-08T01:32:52.071Z,994.55
2023-01-08T01:33:01.041Z,994.58
2023-01-08T01:33:11.051Z,994.54
2023-01-08T01:33:21.027Z,994.52
2023-01-08T01:33:31.042Z,994.59
2023-01-08T01:33:41.056Z,994.58
2023-01-08T01:33:52.030Z,994.57
2023-01-08T01:34:01.024Z,994.60
2023-01-08T01:34:11.578Z,994.56
2023-01-08T01:34:21.029Z,994.59
2023-01-08T01:34:31.030Z,994.58
2023-01-08T01:34:41.074Z,994.58
2023-01-08T01:34:51.038Z,994.67
2023-01-08T01:35:01.154Z,994.66
2023-01-08T01:35:11.039Z,994.63
2023-01-08T01:35:21.021Z,994.53
2023-01-08T01:35:31.036Z,994.59
2023-01-08T01:35:41.111Z,994.58
2023-01-08T01:35:51.019Z,994.60
2023-01-08T01:36:02.040Z,994.65
2023-01-08T01:36:11.025Z,994.64
2023-01-08T01:36:21.026Z,994.64
2023-01-08T01:36:31.056Z,994.61
2023-01-08T01:36:41.032Z,994.66
2023-01-08T01:36:51.033Z,994.66
2023-01-08T01:37:01.046Z,994.68
2023-01-08T01:37:11.566Z,994.58
2023-01-08T01:37:21.029Z,994.65
2023-01-08T01:37:31.011Z,994.66
2023-01-08T01:37:41.022Z,994.65
2023-01-08T01:37:51.014Z,994.69
2023-01-08T01:38:01.069Z,994.60
2023-01-08T01:38:11.011Z,994.60
2023-01-08T01:38:21.028Z,994.62
2023-01-08T01:38:31.151Z,994.56
2023-01-08T01:38:41.005Z,994.58
2023-01-08T01:38:51.011Z,994.64
2023-01-08T01:39:01.003Z,994.67
2023-01-08T01:39:11.632Z,994.69
2023-01-08T01:39:21.053Z,994.60
2023-01-08T01:39:31.007Z,994.61
2023-01-08T01:39:41.024Z,994.58
2023-01-08T01:39:51.661Z,994.62
2023-01-08T01:40:01.003Z,994.60
2023-01-08T01:40:11.033Z,994.63
2023-01-08T01:40:21.000Z,994.55
2023-01-08T01:40:31.004Z,994.65
2023-01-08T01:40:41.005Z,994.53
2023-01-08T01:40:51.006Z,994.56
2023-01-08T01:41:01.003Z,994.60
2023-01-08T01:41:11.017Z,994.65
2023-01-08T01:41:21.005Z,994.62
2023-01-08T01:41:31.007Z,994.68
2023-01-08T01:41:41.010Z,994.68
2023-01-08T01:41:50.991Z,994.69
2023-01-08T01:42:01.017Z,994.71
2023-01-08T01:42:11.009Z,994.71
2023-01-08T01:42:20.991Z,994.73
2023-01-08T01:42:30.992Z,994.65
2023-01-08T01:42:41.081Z,994.76
2023-01-08T01:42:50.991Z,994.70
2023-01-08T01:43:00.997Z,994.73
2023-01-08T01:43:10.987Z,994.79
2023-01-08T01:43:21.076Z,994.70
2023-01-08T01:43:31.000Z,994.68
2023-01-08T01:43:40.995Z,994.73
2023-01-08T01:43:50.993Z,994.68
2023-01-08T01:44:01.033Z,994.69
2023-01-08T01:44:10.987Z,994.72
2023-01-08T01:44:20.986Z,994.67
2023-01-08T01:44:31.021Z,994.74
2023-01-08T01:44:40.978Z,994.75
2023-01-08T01:44:51.083Z,994.69
2023-01-08T01:45:01.003Z,994.66
2023-01-08T01:45:10.980Z,994.71
2023-01-08T01:45:21.013Z,994.70
2023-01-08T01:45:31.130Z,994.71
2023-01-08T01:45:41.032Z,994.68
2023-01-08T01:45:51.058Z,994.72
2023-01-08T01:46:01.081Z,994.77
2023-01-08T01:46:11.002Z,994.80
2023-01-08T01:46:21.066Z,994.78
2023-01-08T01:46:30.979Z,994.77
2023-01-08T01:46:40.978Z,994.79
2023-01-08T01:46:51.552Z,994.63
2023-01-08T01:47:00.979Z,994.71
2023-01-08T01:47:10.977Z,994.73
2023-01-08T01:47:20.990Z,994.73
2023-01-08T01:47:30.975Z,994.76
2023-01-08T01:47:40.978Z,994.68
2023-01-08T01:47:51.001Z,994.68
2023-01-08T01:48:00.962Z,994.64
2023-01-08T01:48:11.005Z,994.60
2023-01-08T01:48:20.977Z,994.62
2023-01-08T01:48:30.965Z,994.66
2023-01-08T01:48:40.963Z,994.64
2023-01-08T01:48:50.987Z,994.68
2023-01-08T01:49:01.040Z,994.71
2023-01-08T01:49:10.984Z,994.67
2023-01-08T01:49:20.962Z,994.72
2023-01-08T01:49:31.554Z,994.69
2023-01-08T01:49:41.057Z,994.69
2023-01-08T01:49:50.959Z,994.65
2023-01-08T01:50:00.965Z,994.64
2023-01-08T01:50:10.965Z,994.62
2023-01-08T01:50:20.964Z,994.64
2023-01-08T01:50:31.671Z,994.66
2023-01-08T01:50:40.957Z,994.59
2023-01-08T01:50:50.959Z,994.59
2023-01-08T01:51:00.998Z,994.61
2023-01-08T01:51:10.965Z,994.57
2023-01-08T01:51:20.976Z,994.60
2023-01-08T01:51:30.957Z,994.59
2023-01-08T01:51:40.988Z,994.57
2023-01-08T01:51:50.952Z,994.65
2023-01-08T01:52:00.945Z,994.51
2023-01-08T01:52:10.965Z,994.62
2023-01-08T01:52:20.945Z,994.60
2023-01-08T01:52:30.950Z,994.58
2023-01-08T01:52:40.973Z,994.62
2023-01-08T01:52:50.949Z,994.59
2023-01-08T01:53:00.960Z,994.54
2023-01-08T01:53:10.942Z,994.56
2023-01-08T01:53:20.956Z,994.59
2023-01-08T01:53:30.950Z,994.62
2023-01-08T01:53:40.952Z,994.51
2023-01-08T01:53:51.526Z,994.57
2023-01-08T01:54:00.967Z,994.59
2023-01-08T01:54:10.944Z,994.56
2023-01-08T01:54:20.940Z,994.53
2023-01-08T01:54:30.950Z,994.58
2023-01-08T01:54:40.944Z,994.62
2023-01-08T01:54:50.979Z,994.62
2023-01-08T01:55:01.093Z,994.72
2023-01-08T01:55:10.950Z,994.65
2023-01-08T01:55:20.972Z,994.66
2023-01-08T01:55:30.976Z,994.65
2023-01-08T01:55:40.932Z,994.65
2023-01-08T01:55:51.564Z,994.59
2023-01-08T01:56:00.967Z,994.56
2023-01-08T01:56:10.937Z,994.63
2023-01-08T01:56:20.942Z,994.64
2023-01-08T01:56:30.935Z,994.59
2023-01-08T01:56:41.006Z,994.59
2023-01-08T01:56:50.938Z,994.60
2023-01-08T01:57:00.938Z,994.55
2023-01-08T01:57:10.932Z,994.59
2023-01-08T01:57:20.968Z,994.59
2023-01-08T01:57:30.931Z,994.51
2023-01-08T01:57:40.939Z,994.53
2023-01-08T01:57:51.523Z,994.58
2023-01-08T01:58:01.524Z,994.54
2023-01-08T01:58:10.941Z,994.52
2023-01-08T01:58:20.959Z,994.55
2023-01-08T01:58:30.924Z,994.55
2023-01-08T01:58:40.930Z,994.58
2023-01-08T01:58:50.949Z,994.51
2023-01-08T01:59:00.939Z,994.46
2023-01-08T01:59:10.931Z,994.54
2023-01-08T01:59:20.936Z,994.52
2023-01-08T01:59:30.915Z,994.46
2023-01-08T01:59:40.919Z,994.40
2023-01-08T01:59:50.923Z,994.49
2023-01-08T02:00:01.018Z,994.52
2023-01-08T02:00:10.962Z,994.45
2023-01-08T02:00:20.922Z,994.35
2023-01-08T02:00:30.920Z,994.44
2023-01-08T02:00:40.931Z,994.44
2023-01-08T02:00:51.616Z,994.51
2023-01-08T02:01:00.963Z,994.41
2023-01-08T02:01:11.023Z,994.51
2023-01-08T02:01:21.067Z,994.48
2023-01-08T02:01:31.051Z,994.55
2023-01-08T02:01:41.027Z,994.46
2023-01-08T02:01:51.292Z,994.48
2023-01-08T02:02:01.073Z,994.54
2023-01-08T02:02:11.073Z,994.51
2023-01-08T02:02:22.888Z,994.51
2023-01-08T02:02:30.943Z,994.45
2023-01-08T02:02:40.920Z,994.44
2023-01-08T02:02:50.905Z,994.35
2023-01-08T02:03:01.526Z,994.45
2023-01-08T02:03:10.906Z,994.41
2023-01-08T02:03:20.898Z,994.47
2023-01-08T02:03:30.951Z,994.37
2023-01-08T02:03:40.955Z,994.44
2023-01-08T02:03:50.980Z,994.52
2023-01-08T02:04:00.947Z,994.50
2023-01-08T02:04:10.968Z,994.50
2023-01-08T02:04:20.983Z,994.29
2023-01-08T02:04:30.958Z,994.41
2023-01-08T02:04:40.899Z,994.47